createdAt,value
2022-12-07T00:01:47.233Z,98319.25
2022-12-07T00:04:18.016Z,98314.22
2022-12-07T00:06:49.058Z,98314.16
2022-12-07T00:09:20.268Z,98313.34
2022-12-07T00:11:52.140Z,98319.31
2022-12-07T00:14:23.177Z,98319.25
2022-12-07T00:16:55.181Z,98315.22
2022-12-07T00:19:23.973Z,98319.38
2022-12-07T00:21:55.514Z,98316.88
2022-12-07T00:24:24.615Z,98315.97
2022-12-07T00:26:53.520Z,98317.66
2022-12-07T00:29:24.666Z,98315.22
2022-12-07T00:31:53.403Z,98310.91
2022-12-07T00:34:23.435Z,98306.69
2022-12-07T00:36:52.395Z,98307.56
2022-12-07T00:39:21.306Z,98302.63
2022-12-07T00:41:50.264Z,98306.78
2022-12-07T00:44:18.970Z,98311.78
2022-12-07T00:46:49.337Z,98302.47
2022-12-07T00:49:17.999Z,98304.25
2022-12-07T00:51:46.846Z,98296.66
2022-12-07T00:54:15.536Z,98303.28
2022-12-07T00:56:44.501Z,98308.50
2022-12-07T00:59:16.156Z,98311.13
2022-12-07T01:01:45.172Z,98314.56
2022-12-07T01:04:15.434Z,98311.22
2022-12-07T01:06:44.148Z,98310.34
2022-12-07T01:09:13.043Z,98305.25
2022-12-07T01:11:41.804Z,98310.34
2022-12-07T01:14:11.741Z,98305.34
2022-12-07T01:16:42.154Z,98310.41
2022-12-07T01:19:11.137Z,98309.47
2022-12-07T01:21:41.398Z,98314.56
2022-12-07T01:24:12.716Z,98316.31
2022-12-07T01:26:42.156Z,98318.03
2022-12-07T01:29:11.080Z,98311.22
2022-12-07T01:31:39.813Z,98324.03
2022-12-07T01:34:08.553Z,98319.81
2022-12-07T01:36:38.260Z,98319.03
2022-12-07T01:39:11.392Z,98326.63
2022-12-07T01:41:44.230Z,98329.13
2022-12-07T01:44:19.188Z,98328.25
2022-12-07T01:46:48.291Z,98326.63
2022-12-07T01:49:22.737Z,98328.34
2022-12-07T01:51:53.071Z,98327.50
2022-12-07T01:54:23.731Z,98335.22
2022-12-07T01:56:54.203Z,98328.34
2022-12-07T01:59:26.039Z,98329.28
2022-12-07T02:01:55.678Z,98329.28
2022-12-07T02:04:25.295Z,98333.44
2022-12-07T02:06:54.552Z,98327.50
2022-12-07T02:09:24.850Z,98330.16
2022-12-07T02:11:54.121Z,98325.13
2022-12-07T02:14:23.015Z,98323.41
2022-12-07T02:17:01.767Z,98327.66
2022-12-07T02:19:50.139Z,98326.88
2022-12-07T02:22:31.345Z,98322.56
2022-12-07T02:25:07.362Z,98322.50
2022-12-07T02:27:45.938Z,98313.19
2022-12-07T02:30:17.251Z,98313.31
2022-12-07T02:32:53.543Z,98314.25
2022-12-07T02:35:26.369Z,98311.75
2022-12-07T02:38:01.958Z,98311.75
2022-12-07T02:40:34.017Z,98310.06
2022-12-07T02:43:06.660Z,98302.47
2022-12-07T02:45:37.872Z,98305.09
2022-12-07T02:48:07.349Z,98300.88
2022-12-07T02:50:36.072Z,98299.16
2022-12-07T02:53:05.039Z,98300.88
2022-12-07T02:55:39.601Z,98298.28
2022-12-07T02:58:26.031Z,98292.38
2022-12-07T03:01:02.097Z,98297.41
2022-12-07T03:03:31.560Z,98288.03
2022-12-07T03:06:11.400Z,98294.00
2022-12-07T03:08:46.780Z,98282.09
2022-12-07T03:11:21.947Z,98284.66
2022-12-07T03:13:53.227Z,98285.59
2022-12-07T03:16:26.016Z,98289.84
2022-12-07T03:18:58.243Z,98282.22
2022-12-07T03:21:29.320Z,98290.69
2022-12-07T03:24:01.013Z,98285.59
2022-12-07T03:26:34.329Z,98290.72
2022-12-07T03:29:07.432Z,98288.13
2022-12-07T03:31:40.124Z,98277.94
2022-12-07T03:34:13.543Z,98277.94
2022-12-07T03:36:45.643Z,98283.03
2022-12-07T03:39:21.798Z,98282.25
2022-12-07T03:41:50.637Z,98273.72
2022-12-07T03:44:19.679Z,98271.25
2022-12-07T03:46:54.598Z,98272.13
2022-12-07T03:49:24.112Z,98276.38
2022-12-07T03:51:56.904Z,98277.25
2022-12-07T03:54:28.875Z,98276.38
2022-12-07T03:56:58.436Z,98274.69
2022-12-07T03:59:27.933Z,98276.38
2022-12-07T04:02:00.177Z,98266.13
2022-12-07T04:04:29.249Z,98269.63
2022-12-07T04:06:58.244Z,98273.81
2022-12-07T04:09:27.397Z,98265.34
2022-12-07T04:11:56.329Z,98267.94
2022-12-07T04:14:25.230Z,98267.13
2022-12-07T04:16:57.392Z,98268.00
2022-12-07T04:19:29.111Z,98256.16
2022-12-07T04:21:58.497Z,98243.41
2022-12-07T04:24:27.919Z,98239.25
2022-12-07T04:26:56.925Z,98239.34
2022-12-07T04:29:25.866Z,98244.41
2022-12-07T04:31:55.023Z,98245.28
2022-12-07T04:34:23.921Z,98241.91
2022-12-07T04:36:54.186Z,98233.47
2022-12-07T04:39:24.267Z,98229.31
2022-12-07T04:41:53.319Z,98216.53
2022-12-07T04:44:22.941Z,98215.81
2022-12-07T04:46:51.977Z,98217.50
2022-12-07T04:49:21.619Z,98207.38
2022-12-07T04:51:50.544Z,98209.88
2022-12-07T04:54:20.663Z,98213.34
2022-12-07T04:56:49.538Z,98220.22
2022-12-07T04:59:19.416Z,98236.31
2022-12-07T05:01:48.219Z,98234.56
2022-12-07T05:04:18.895Z,98230.31
2022-12-07T05:06:48.084Z,98234.50
2022-12-07T05:09:16.876Z,98231.16
2022-12-07T05:11:47.037Z,98234.59
2022-12-07T05:14:17.774Z,98245.56
2022-12-07T05:16:48.645Z,98252.28
2022-12-07T05:19:17.583Z,98257.38
2022-12-07T05:21:46.542Z,98251.34
2022-12-07T05:24:16.434Z,98252.19
2022-12-07T05:26:50.407Z,98253.03
2022-12-07T05:29:22.405Z,98253.03
2022-12-07T05:31:51.397Z,98247.97
2022-12-07T05:34:20.474Z,98261.59
2022-12-07T05:36:51.415Z,98264.19
2022-12-07T05:39:20.459Z,98257.38
2022-12-07T05:42:08.248Z,98254.06
2022-12-07T05:44:37.075Z,98262.56
2022-12-07T05:47:06.223Z,98256.66
2022-12-07T05:49:38.216Z,98255.00
2022-12-07T05:52:07.198Z,98261.78
2022-12-07T05:54:36.581Z,98258.41
2022-12-07T05:57:09.006Z,98254.22
2022-12-07T05:59:37.045Z,98257.63
2022-12-07T06:02:07.805Z,98251.69
2022-12-07T06:04:39.329Z,98258.47
2022-12-07T06:07:08.632Z,98262.72
2022-12-07T06:09:37.419Z,98274.59
2022-12-07T06:12:25.439Z,98264.41
2022-12-07T06:14:54.495Z,98265.31
2022-12-07T06:17:23.235Z,98264.44
2022-12-07T06:19:52.139Z,98261.88
2022-12-07T06:22:21.127Z,98266.09
2022-12-07T06:24:49.895Z,98270.41
2022-12-07T06:27:19.908Z,98261.94
2022-12-07T06:29:52.459Z,98261.13
2022-12-07T06:32:21.483Z,98266.25
2022-12-07T06:34:50.183Z,98265.41
2022-12-07T06:37:19.227Z,98259.47
2022-12-07T06:39:48.165Z,98249.44
2022-12-07T06:42:16.928Z,98255.44
2022-12-07T06:44:47.046Z,98267.31
2022-12-07T06:50:06.961Z,98278.28
2022-12-07T06:52:35.977Z,98274.88
2022-12-07T06:55:04.943Z,98264.69
2022-12-07T06:57:33.721Z,98278.22
2022-12-07T07:00:04.947Z,98279.06
2022-12-07T07:02:34.124Z,98277.44
2022-12-07T07:05:03.006Z,98275.78
2022-12-07T07:07:33.486Z,98278.31
2022-12-07T07:10:11.417Z,98277.44
2022-12-07T07:12:40.164Z,98276.59
2022-12-07T07:15:13.072Z,98278.28
2022-12-07T07:17:42.334Z,98279.97
2022-12-07T07:20:12.235Z,98279.97
2022-12-07T07:22:41.207Z,98280.81
2022-12-07T07:25:10.255Z,98290.94
2022-12-07T07:27:39.156Z,98291.78
2022-12-07T07:30:10.473Z,98285.06
2022-12-07T07:32:39.218Z,98293.50
2022-12-07T07:35:08.554Z,98281.66
2022-12-07T07:37:37.401Z,98287.63
2022-12-07T07:40:07.275Z,98290.16
2022-12-07T07:42:36.116Z,98294.34
2022-12-07T07:45:05.623Z,98292.63
2022-12-07T07:47:36.066Z,98296.03
2022-12-07T07:50:05.946Z,98293.50
2022-12-07T07:52:35.505Z,98302.81
2022-12-07T07:55:05.131Z,98295.13
2022-12-07T07:57:34.074Z,98303.53
2022-12-07T08:00:03.329Z,98300.94
2022-12-07T08:02:43.830Z,98303.50
2022-12-07T08:05:13.362Z,98298.44
2022-12-07T08:07:42.453Z,98301.75
2022-12-07T08:10:13.651Z,98303.41
2022-12-07T08:12:57.405Z,98304.28
2022-12-07T08:15:27.278Z,98308.47
2022-12-07T08:17:57.563Z,98305.88
2022-12-07T08:20:26.485Z,98301.63
2022-12-07T08:22:55.501Z,98310.88
2022-12-07T08:25:24.435Z,98305.78
2022-12-07T08:27:53.654Z,98309.19
2022-12-07T08:30:22.911Z,98308.28
2022-12-07T08:32:52.208Z,98307.44
2022-12-07T08:35:22.775Z,98309.06
2022-12-07T08:37:51.586Z,98310.69
2022-12-07T08:40:22.029Z,98324.28
2022-12-07T08:42:54.048Z,98315.66
2022-12-07T08:45:27.336Z,98312.19
2022-12-07T08:47:59.813Z,98313.81
2022-12-07T08:50:31.300Z,98311.31
2022-12-07T08:53:01.596Z,98312.13
2022-12-07T08:55:31.065Z,98310.44
2022-12-07T08:58:00.783Z,98312.94
2022-12-07T09:00:30.034Z,98308.59
2022-12-07T09:02:58.808Z,98314.56
2022-12-07T09:05:29.225Z,98312.78
2022-12-07T09:08:02.106Z,98305.13
2022-12-07T09:10:31.302Z,98302.47
2022-12-07T09:13:01.684Z,98310.09
2022-12-07T09:15:30.987Z,98305.00
2022-12-07T09:18:02.632Z,98308.28
2022-12-07T09:20:32.958Z,98309.94
2022-12-07T09:23:01.987Z,98316.53
2022-12-07T09:25:30.925Z,98313.19
2022-12-07T09:28:00.278Z,98302.13
2022-12-07T09:30:30.800Z,98309.72
2022-12-07T09:33:00.255Z,98306.13
2022-12-07T09:35:29.197Z,98304.34
2022-12-07T09:37:59.545Z,98309.25
2022-12-07T09:40:28.572Z,98303.19
2022-12-07T09:42:57.966Z,98304.03
2022-12-07T09:45:29.471Z,98307.31
2022-12-07T09:47:58.383Z,98308.06
2022-12-07T09:50:29.195Z,98300.25
2022-12-07T09:53:17.009Z,98297.81
2022-12-07T09:55:46.342Z,98293.53
2022-12-07T09:58:21.851Z,98287.38
2022-12-07T10:00:51.052Z,98295.97
2022-12-07T10:03:20.075Z,98286.25
2022-12-07T10:05:51.832Z,98286.31
2022-12-07T10:08:22.308Z,98277.00
2022-12-07T10:10:53.673Z,98279.41
2022-12-07T10:13:26.289Z,98266.00
2022-12-07T10:15:59.747Z,98266.00
2022-12-07T10:18:37.041Z,98270.22
2022-12-07T10:21:14.561Z,98271.53
2022-12-07T10:24:01.443Z,98273.31
2022-12-07T10:26:33.136Z,98260.69
2022-12-07T10:29:03.200Z,98265.72
2022-12-07T10:31:32.490Z,98269.09
2022-12-07T10:34:02.765Z,98270.59
2022-12-07T10:36:37.834Z,98265.41
2022-12-07T10:39:13.206Z,98264.56
2022-12-07T10:41:56.771Z,98261.84
2022-12-07T10:44:27.008Z,98261.06
2022-12-07T10:47:14.950Z,98262.97
2022-12-07T10:49:59.733Z,98261.31
2022-12-07T10:52:39.723Z,98257.94
2022-12-07T10:55:19.400Z,98254.38
2022-12-07T10:58:11.500Z,98249.88
2022-12-07T11:00:44.814Z,98241.34
2022-12-07T11:03:25.714Z,98253.16
2022-12-07T11:05:58.723Z,98239.66
2022-12-07T11:08:40.600Z,98236.34
2022-12-07T11:11:15.567Z,98239.81
2022-12-07T11:13:49.866Z,98233.09
2022-12-07T11:16:29.870Z,98233.88
2022-12-07T11:19:08.149Z,98224.44
2022-12-07T11:21:42.340Z,98227.75
2022-12-07T11:24:16.955Z,98231.25
2022-12-07T11:26:58.120Z,98220.94
2022-12-07T11:29:45.985Z,98221.81
2022-12-07T11:32:20.204Z,98218.38
2022-12-07T11:34:57.932Z,98211.53
2022-12-07T11:37:36.116Z,98214.03
2022-12-07T11:40:17.018Z,98213.88
2022-12-07T11:42:52.423Z,98211.19
2022-12-07T11:45:25.598Z,98206.19
2022-12-07T11:47:55.755Z,98207.19
2022-12-07T11:50:29.362Z,98207.88
2022-12-07T11:53:01.049Z,98204.56
2022-12-07T11:55:32.782Z,98200.09
2022-12-07T11:58:07.097Z,98197.75
2022-12-07T12:00:36.309Z,98195.31
2022-12-07T12:03:10.001Z,98195.13
2022-12-07T12:05:38.854Z,98196.91
2022-12-07T12:11:14.868Z,98185.00
2022-12-07T12:17:16.381Z,98193.53
2022-12-07T12:19:46.245Z,98185.09
2022-12-07T12:22:20.002Z,98174.78
2022-12-07T12:24:52.576Z,98178.28
2022-12-07T12:27:25.654Z,98177.47
2022-12-07T12:29:58.447Z,98176.56
2022-12-07T12:32:35.272Z,98171.47
2022-12-07T12:35:27.554Z,98172.22
2022-12-07T12:37:57.407Z,98174.69
2022-12-07T12:40:48.667Z,98171.38
2022-12-07T12:43:53.106Z,98174.72
2022-12-07T12:46:53.973Z,98162.91
2022-12-07T12:50:13.344Z,98172.97
2022-12-07T12:53:01.196Z,98176.28
2022-12-07T12:56:02.838Z,98167.84
2022-12-07T12:58:35.316Z,98172.09
2022-12-07T13:01:49.427Z,98163.47
2022-12-07T13:04:54.269Z,98160.22
2022-12-07T13:07:59.187Z,98153.41
2022-12-07T13:10:38.017Z,98157.66
2022-12-07T13:13:30.363Z,98147.59
2022-12-07T13:16:51.130Z,98145.84
2022-12-07T13:20:00.904Z,98135.63
2022-12-07T13:22:57.755Z,98145.00
2022-12-07T13:25:38.811Z,98142.41
2022-12-07T13:28:17.016Z,98148.41
2022-12-07T13:30:51.906Z,98142.47
2022-12-07T13:33:21.531Z,98146.69
2022-12-07T13:35:50.604Z,98136.34
2022-12-07T13:38:26.844Z,98138.88
2022-12-07T13:41:06.454Z,98144.75
2022-12-07T13:43:50.210Z,98134.63
2022-12-07T13:46:21.915Z,98135.41
2022-12-07T13:48:52.602Z,98134.66
2022-12-07T13:51:24.077Z,98136.34
2022-12-07T13:53:55.955Z,98130.41
2022-12-07T13:56:28.163Z,98130.34
2022-12-07T13:58:57.484Z,98129.59
2022-12-07T14:01:27.191Z,98125.41
2022-12-07T14:03:55.959Z,98131.59
2022-12-07T14:06:27.962Z,98116.25
2022-12-07T14:09:11.550Z,98128.94
2022-12-07T14:11:41.273Z,98133.06
2022-12-07T14:14:17.738Z,98121.38
2022-12-07T14:16:56.523Z,98129.09
2022-12-07T14:19:47.959Z,98124.81
2022-12-07T14:22:29.952Z,98118.81
2022-12-07T14:25:18.700Z,98129.00
2022-12-07T14:27:54.064Z,98123.56
2022-12-07T14:30:23.175Z,98116.66
2022-12-07T14:32:55.860Z,98123.19
2022-12-07T14:35:24.864Z,98120.41
2022-12-07T14:37:53.909Z,98123.06
2022-12-07T14:40:26.138Z,98119.34
2022-12-07T14:42:58.042Z,98122.03
2022-12-07T14:45:26.747Z,98117.81
2022-12-07T14:53:39.182Z,98125.56
2022-12-07T14:56:09.807Z,98130.97
2022-12-07T14:58:38.774Z,98132.66
2022-12-07T15:01:07.567Z,98130.19
2022-12-07T15:03:39.067Z,98131.00
2022-12-07T15:06:08.485Z,98131.91
2022-12-07T15:08:37.247Z,98121.91
2022-12-07T15:11:06.039Z,98134.63
2022-12-07T15:13:53.690Z,98130.34
2022-12-07T15:16:22.926Z,98128.66
2022-12-07T15:19:26.079Z,98134.75
2022-12-07T15:21:41.502Z,98132.25
2022-12-07T15:24:11.521Z,98128.75
2022-12-07T15:26:41.130Z,98128.75
2022-12-07T15:29:11.760Z,98133.94
2022-12-07T15:31:55.934Z,98137.44
2022-12-07T15:34:27.406Z,98135.97
2022-12-07T15:36:56.236Z,98130.06
2022-12-07T15:39:24.992Z,98132.44
2022-12-07T15:41:53.705Z,98127.25
2022-12-07T15:44:41.377Z,98123.84
2022-12-07T15:47:10.021Z,98121.22
2022-12-07T15:49:38.869Z,98130.75
2022-12-07T15:52:07.631Z,98120.47
2022-12-07T15:54:36.369Z,98117.13
2022-12-07T15:57:05.268Z,98116.19
2022-12-07T15:59:35.254Z,98122.31
2022-12-07T16:02:04.277Z,98117.22
2022-12-07T16:04:33.096Z,98114.03
2022-12-07T16:07:01.997Z,98119.13
2022-12-07T16:09:30.735Z,98107.22
2022-12-07T16:11:59.354Z,98107.56
2022-12-07T16:14:28.367Z,98112.75
2022-12-07T16:16:58.362Z,98116.44
2022-12-07T16:19:27.202Z,98118.16
2022-12-07T16:21:55.856Z,98109.88
2022-12-07T16:24:24.468Z,98115.22
2022-12-07T16:26:53.351Z,98101.59
2022-12-07T16:29:23.099Z,98109.97
2022-12-07T16:31:52.790Z,98107.31
2022-12-07T16:34:22.850Z,98103.63
2022-12-07T16:37:06.693Z,98096.84
2022-12-07T16:39:36.219Z,98091.31
2022-12-07T16:42:05.188Z,98080.34
2022-12-07T16:44:33.885Z,98084.56
2022-12-07T16:47:02.815Z,98082.00
2022-12-07T16:49:33.157Z,98074.34
2022-12-07T16:52:19.266Z,98076.34
2022-12-07T16:54:48.480Z,98072.13
2022-12-07T16:57:22.316Z,98070.53
2022-12-07T16:59:52.291Z,98063.78
2022-12-07T17:02:21.728Z,98064.63
2022-12-07T17:04:53.175Z,98062.00
2022-12-07T17:07:21.829Z,98063.84
2022-12-07T17:09:50.809Z,98069.03
2022-12-07T17:12:20.223Z,98062.22
2022-12-07T17:15:06.268Z,98056.28
2022-12-07T17:17:35.190Z,98046.06
2022-12-07T17:20:06.014Z,98047.75
2022-12-07T17:22:34.696Z,98051.16
2022-12-07T17:25:03.930Z,98041.78
2022-12-07T17:27:33.225Z,98043.47
2022-12-07T17:30:02.012Z,98047.66
2022-12-07T17:32:30.713Z,98044.28
2022-12-07T17:35:00.786Z,98045.13
2022-12-07T17:37:32.131Z,98043.47
2022-12-07T17:40:01.173Z,98049.47
2022-12-07T17:42:40.408Z,98042.75
2022-12-07T17:45:11.252Z,98043.69
2022-12-07T17:47:40.648Z,98045.50
2022-12-07T17:50:10.413Z,98041.16
2022-12-07T17:52:59.300Z,98042.09
2022-12-07T17:55:27.904Z,98043.72
2022-12-07T17:57:57.157Z,98043.72
2022-12-07T18:00:26.088Z,98041.22
2022-12-07T18:02:54.880Z,98039.47
2022-12-07T18:05:23.730Z,98040.41
2022-12-07T18:07:55.411Z,98044.69
2022-12-07T18:10:24.441Z,98037.97
2022-12-07T18:13:13.206Z,98037.78
2022-12-07T18:15:42.585Z,98041.34
2022-12-07T18:18:11.431Z,98046.34
2022-12-07T18:20:41.452Z,98043.91
2022-12-07T18:23:12.568Z,98038.06
2022-12-07T18:25:43.195Z,98044.97
2022-12-07T18:28:12.195Z,98050.97
2022-12-07T18:31:13.757Z,98044.97
2022-12-07T18:33:31.240Z,98047.53
2022-12-07T18:36:02.023Z,98044.53
2022-12-07T18:38:32.660Z,98044.53
2022-12-07T18:41:02.532Z,98038.75
2022-12-07T18:43:31.356Z,98037.09
2022-12-07T18:46:00.299Z,98037.16
2022-12-07T18:48:29.063Z,98044.91
2022-12-07T18:51:03.199Z,98037.28
2022-12-07T18:53:34.378Z,98039.81
2022-12-07T18:56:04.920Z,98041.47
2022-12-07T18:58:33.795Z,98040.38
2022-12-07T19:01:03.031Z,98039.44
2022-12-07T19:03:33.644Z,98035.94
2022-12-07T19:06:07.719Z,98036.84
2022-12-07T19:08:38.428Z,98034.34
2022-12-07T19:11:27.339Z,98037.75
2022-12-07T19:13:56.015Z,98038.63
2022-12-07T19:16:24.817Z,98037.00
2022-12-07T19:18:54.142Z,98025.94
2022-12-07T19:21:23.176Z,98025.00
2022-12-07T19:23:53.387Z,98034.41
2022-12-07T19:26:23.174Z,98022.53
2022-12-07T19:28:52.111Z,98012.31
2022-12-07T19:31:20.734Z,98022.53
2022-12-07T19:33:49.546Z,98032.75
2022-12-07T19:36:18.256Z,98024.28
2022-12-07T19:38:46.826Z,98020.94
2022-12-07T19:41:31.197Z,98020.94
2022-12-07T19:44:00.305Z,98026.91
2022-12-07T19:46:29.544Z,98025.25
2022-12-07T19:49:00.570Z,98029.56
2022-12-07T19:51:29.425Z,98025.31
2022-12-07T19:53:59.348Z,98024.47
2022-12-07T19:56:31.039Z,98027.84
2022-12-07T19:59:02.072Z,98019.44
2022-12-07T20:01:31.201Z,98017.72
2022-12-07T20:04:00.011Z,98012.63
2022-12-07T20:06:28.914Z,98011.78
2022-12-07T20:08:57.777Z,98013.59
2022-12-07T20:11:45.218Z,98002.50
2022-12-07T20:14:14.357Z,98005.94
2022-12-07T20:16:45.504Z,98001.72
2022-12-07T20:19:15.591Z,98003.50
2022-12-07T20:21:45.162Z,98000.78
2022-12-07T20:24:17.220Z,98001.72
2022-12-07T20:26:49.003Z,98004.28
2022-12-07T20:29:19.904Z,98004.28
2022-12-07T20:31:49.638Z,98005.19
2022-12-07T20:34:18.826Z,98002.63
2022-12-07T20:36:47.728Z,97994.13
2022-12-07T20:39:16.715Z,97989.94
2022-12-07T20:42:04.363Z,97981.41
2022-12-07T20:44:34.924Z,97983.94
2022-12-07T20:47:04.334Z,97974.66
2022-12-07T20:49:33.152Z,97977.91
2022-12-07T20:52:01.908Z,97971.28
2022-12-07T20:54:30.570Z,97968.66
2022-12-07T20:57:00.648Z,97961.91
2022-12-07T20:59:29.314Z,97965.16
2022-12-07T21:01:58.230Z,97957.63
2022-12-07T21:04:27.625Z,97960.06
2022-12-07T21:06:56.383Z,97961.88
2022-12-07T21:09:27.066Z,97969.56
2022-12-07T21:11:56.500Z,97967.00
2022-12-07T21:14:26.884Z,97962.75
2022-12-07T21:16:57.816Z,97958.53
2022-12-07T21:19:26.509Z,97954.34
2022-12-07T21:21:55.313Z,97958.59
2022-12-07T21:24:24.058Z,97951.78
2022-12-07T21:26:52.741Z,97950.88
2022-12-07T21:29:40.714Z,97944.16
2022-12-07T21:32:12.211Z,97948.41
2022-12-07T21:34:41.141Z,97939.88
2022-12-07T21:37:10.089Z,97938.28
2022-12-07T21:39:39.157Z,97946.69
2022-12-07T21:42:07.815Z,97945.91
2022-12-07T21:44:36.803Z,97939.09
2022-12-07T21:47:05.998Z,97944.19
2022-12-07T21:49:36.558Z,97940.81
2022-12-07T21:52:05.876Z,97939.94
2022-12-07T21:54:34.634Z,97935.75
2022-12-07T21:57:03.619Z,97924.78
2022-12-07T21:59:32.215Z,97924.78
2022-12-07T22:02:01.050Z,97929.19
2022-12-07T22:04:29.967Z,97940.25
2022-12-07T22:07:01.565Z,97936.81
2022-12-07T22:09:30.591Z,97936.91
2022-12-07T22:11:59.387Z,97935.22
2022-12-07T22:14:45.607Z,97935.22
2022-12-07T22:17:14.594Z,97928.47
2022-12-07T22:19:43.229Z,97931.91
2022-12-07T22:22:16.218Z,97943.81
2022-12-07T22:24:45.428Z,97938.03
2022-12-07T22:27:14.242Z,97937.22
2022-12-07T22:29:42.922Z,97936.44
2022-12-07T22:32:46.042Z,97933.88
2022-12-07T22:35:01.200Z,97925.41
2022-12-07T22:37:32.256Z,97931.41
2022-12-07T22:40:01.360Z,97928.09
2022-12-07T22:42:29.949Z,97925.66
2022-12-07T22:44:58.514Z,97929.88
2022-12-07T22:47:27.232Z,97921.41
2022-12-07T22:49:56.752Z,97923.06
2022-12-07T22:52:25.484Z,97923.13
2022-12-07T22:54:55.554Z,97925.66
2022-12-07T22:57:24.176Z,97914.66
2022-12-07T22:59:52.910Z,97921.47
2022-12-07T23:02:21.516Z,97918.97
2022-12-07T23:04:50.406Z,97915.63
2022-12-07T23:07:19.048Z,97908.84
2022-12-07T23:09:47.722Z,97915.69
2022-12-07T23:12:35.458Z,97904.84
2022-12-07T23:15:06.072Z,97913.31
2022-12-07T23:17:37.301Z,97910.75
2022-12-07T23:20:07.298Z,97918.34
2022-12-07T23:22:35.944Z,97907.41
2022-12-07T23:25:05.455Z,97903.13
2022-12-07T23:27:35.890Z,97903.22
2022-12-07T23:30:05.065Z,97895.84
2022-12-07T23:32:33.670Z,97897.44
2022-12-07T23:35:02.825Z,97899.13
2022-12-07T23:37:31.651Z,97892.41
2022-12-07T23:40:00.263Z,97893.38
2022-12-07T23:42:28.901Z,97884.19
2022-12-07T23:44:58.845Z,97880.09
2022-12-07T23:47:27.616Z,97882.66
2022-12-07T23:49:56.200Z,97887.03
2022-12-07T23:52:24.768Z,97879.34
2022-12-07T23:54:53.614Z,97881.94
2022-12-07T23:57:22.240Z,97871.72
2022-12-07T23:59:51.904Z,97871.78
